createdAt,value
2022-12-08T00:01:51.597Z,5.31
2022-12-08T00:03:54.401Z,5.26
2022-12-08T00:06:14.506Z,5.23
2022-12-08T00:08:35.331Z,5.26
2022-12-08T00:10:52.303Z,5.20
2022-12-08T00:12:54.435Z,5.23
2022-12-08T00:14:56.299Z,5.24
2022-12-08T00:16:58.944Z,5.35
2022-12-08T00:19:00.927Z,5.38
2022-12-08T00:21:03.486Z,5.27
2022-12-08T00:23:05.599Z,5.40
2022-12-08T00:25:07.679Z,5.37
2022-12-08T00:27:11.338Z,5.43
2022-12-08T00:29:17.371Z,5.42
2022-12-08T00:31:19.909Z,5.45
2022-12-08T00:33:21.799Z,5.48
2022-12-08T00:35:23.935Z,5.59
2022-12-08T00:37:25.753Z,5.61
2022-12-08T00:39:27.738Z,5.62
2022-12-08T00:41:48.627Z,5.45
2022-12-08T00:43:50.405Z,5.36
2022-12-08T00:45:52.353Z,5.44
2022-12-08T00:47:54.527Z,5.47
2022-12-08T00:49:56.306Z,5.53
2022-12-08T00:51:58.133Z,5.58
2022-12-08T00:54:00.323Z,5.57
2022-12-08T00:56:02.086Z,5.63
2022-12-08T00:58:04.019Z,5.52
2022-12-08T01:00:07.022Z,5.62
2022-12-08T01:02:09.518Z,5.64
2022-12-08T01:04:15.660Z,5.66
2022-12-08T01:06:18.058Z,5.68
2022-12-08T01:08:19.963Z,5.81
2022-12-08T01:10:21.818Z,5.65
2022-12-08T01:12:24.104Z,5.60
2022-12-08T01:14:26.192Z,5.59
2022-12-08T01:16:31.567Z,5.51
2022-12-08T01:18:34.871Z,5.56
2022-12-08T01:20:36.558Z,5.64
2022-12-08T01:22:38.315Z,5.63
2022-12-08T01:24:40.477Z,5.42
2022-12-08T01:26:42.753Z,5.53
2022-12-08T01:28:45.763Z,5.51
2022-12-08T01:30:47.957Z,5.57
2022-12-08T01:32:49.766Z,5.52
2022-12-08T01:34:51.566Z,5.54
2022-12-08T01:36:53.729Z,5.53
2022-12-08T01:38:58.377Z,5.53
2022-12-08T01:41:00.152Z,5.54
2022-12-08T01:43:02.325Z,5.50
2022-12-08T01:45:17.889Z,5.64
2022-12-08T01:47:20.195Z,5.65
2022-12-08T01:49:28.392Z,5.62
2022-12-08T01:51:35.070Z,5.58
2022-12-08T01:53:37.003Z,5.61
2022-12-08T01:55:43.834Z,5.46
2022-12-08T01:57:53.732Z,5.44
2022-12-08T02:00:08.687Z,5.34
2022-12-08T02:02:12.217Z,5.40
2022-12-08T02:04:14.003Z,5.32
2022-12-08T02:06:17.590Z,5.31
2022-12-08T02:08:20.032Z,5.36
2022-12-08T02:10:24.262Z,5.36
2022-12-08T02:12:26.071Z,5.25
2022-12-08T02:14:28.283Z,5.34
2022-12-08T02:17:00.431Z,5.29
2022-12-08T02:19:36.678Z,5.24
2022-12-08T02:21:53.299Z,5.19
2022-12-08T02:24:32.882Z,5.08
2022-12-08T02:26:49.798Z,5.11
2022-12-08T02:28:57.582Z,5.08
2022-12-08T02:31:31.562Z,5.00
2022-12-08T02:33:55.438Z,4.87
2022-12-08T02:35:58.851Z,4.74
2022-12-08T02:38:27.678Z,4.73
2022-12-08T02:40:57.933Z,4.71
2022-12-08T02:43:02.751Z,4.80
2022-12-08T02:45:17.571Z,4.89
2022-12-08T02:47:22.121Z,4.98
2022-12-08T02:49:32.119Z,5.01
2022-12-08T02:51:34.433Z,4.96
2022-12-08T02:53:36.952Z,4.86
2022-12-08T02:56:17.631Z,4.93
2022-12-08T02:58:41.898Z,5.05
2022-12-08T03:01:02.944Z,5.08
2022-12-08T03:03:35.065Z,5.05
2022-12-08T03:05:45.922Z,5.09
2022-12-08T03:07:55.183Z,5.09
2022-12-08T03:10:13.812Z,4.98
2022-12-08T03:12:43.748Z,4.95
2022-12-08T03:14:50.502Z,4.80
2022-12-08T03:16:56.606Z,4.87
2022-12-08T03:19:21.099Z,4.65
2022-12-08T03:21:23.280Z,4.69
2022-12-08T03:23:26.576Z,4.68
2022-12-08T03:25:33.950Z,4.71
2022-12-08T03:27:36.222Z,4.69
2022-12-08T03:29:38.193Z,4.60
2022-12-08T03:31:45.338Z,4.65
2022-12-08T03:33:52.077Z,4.72
2022-12-08T03:35:55.574Z,4.66
2022-12-08T03:38:09.257Z,4.69
2022-12-08T03:40:15.283Z,4.82
2022-12-08T03:42:17.036Z,4.93
2022-12-08T03:44:18.937Z,4.84
2022-12-08T03:48:23.903Z,4.87
2022-12-08T03:50:25.834Z,4.78
2022-12-08T03:52:28.094Z,4.76
2022-12-08T03:54:29.955Z,4.70
2022-12-08T03:56:37.222Z,4.73
2022-12-08T03:58:39.325Z,4.72
2022-12-08T04:00:41.294Z,4.77
2022-12-08T04:02:43.112Z,4.80
2022-12-08T04:04:45.230Z,4.79
2022-12-08T04:06:47.314Z,4.76
2022-12-08T04:08:50.177Z,4.80
2022-12-08T04:10:52.303Z,4.78
2022-12-08T04:12:54.143Z,4.86
2022-12-08T04:14:55.894Z,4.87
2022-12-08T04:16:58.071Z,4.87
2022-12-08T04:19:00.001Z,5.02
2022-12-08T04:21:02.165Z,5.16
2022-12-08T04:23:04.320Z,5.16
2022-12-08T04:25:06.875Z,5.19
2022-12-08T04:27:08.615Z,5.16
2022-12-08T04:29:10.731Z,5.24
2022-12-08T04:31:13.032Z,5.15
2022-12-08T04:33:14.979Z,5.22
2022-12-08T04:35:17.254Z,5.18
2022-12-08T04:37:19.157Z,5.14
2022-12-08T04:39:20.910Z,5.16
2022-12-08T04:41:23.075Z,5.16
2022-12-08T04:43:24.945Z,5.10
2022-12-08T04:45:26.696Z,5.11
2022-12-08T04:47:28.834Z,5.13
2022-12-08T04:49:30.610Z,5.16
2022-12-08T04:51:32.481Z,5.15
2022-12-08T04:53:34.714Z,5.15
2022-12-08T04:55:44.836Z,5.08
2022-12-08T04:57:46.841Z,5.05
2022-12-08T04:59:49.065Z,5.08
2022-12-08T05:01:50.931Z,5.09
2022-12-08T05:03:52.695Z,5.06
2022-12-08T05:05:54.913Z,5.04
2022-12-08T05:07:56.732Z,4.98
2022-12-08T05:09:58.625Z,5.04
2022-12-08T05:12:00.772Z,5.14
2022-12-08T05:14:02.542Z,5.06
2022-12-08T05:16:07.344Z,5.03
2022-12-08T05:18:09.591Z,4.80
2022-12-08T05:20:12.087Z,4.80
2022-12-08T05:22:13.882Z,4.80
2022-12-08T05:24:16.170Z,4.71
2022-12-08T05:26:17.923Z,4.73
2022-12-08T05:28:40.701Z,4.72
2022-12-08T05:30:42.762Z,4.83
2022-12-08T05:32:44.556Z,4.75
2022-12-08T05:34:46.667Z,4.65
2022-12-08T05:36:48.620Z,4.57
2022-12-08T05:38:50.386Z,4.46
2022-12-08T05:40:52.649Z,4.36
2022-12-08T05:42:54.471Z,4.34
2022-12-08T05:44:56.387Z,4.17
2022-12-08T05:46:58.561Z,4.06
2022-12-08T05:49:01.663Z,4.07
2022-12-08T05:51:03.808Z,4.02
2022-12-08T05:53:05.942Z,4.00
2022-12-08T05:55:08.239Z,4.00
2022-12-08T05:57:10.050Z,3.93
2022-12-08T05:59:12.165Z,3.97
2022-12-08T06:01:28.530Z,3.91
2022-12-08T06:03:30.387Z,3.95
2022-12-08T06:05:34.017Z,3.84
2022-12-08T06:07:35.839Z,3.98
2022-12-08T06:09:37.643Z,3.98
2022-12-08T06:11:39.775Z,4.20
2022-12-08T06:13:41.574Z,4.29
2022-12-08T06:15:43.389Z,4.48
2022-12-08T06:17:45.691Z,4.58
2022-12-08T06:19:47.488Z,4.66
2022-12-08T06:21:49.342Z,4.77
2022-12-08T06:23:53.289Z,4.87
2022-12-08T06:25:55.043Z,4.93
2022-12-08T06:27:56.874Z,4.96
2022-12-08T06:29:59.151Z,4.98
2022-12-08T06:32:00.981Z,5.02
2022-12-08T06:34:03.227Z,5.11
2022-12-08T06:36:06.750Z,5.06
2022-12-08T06:38:08.697Z,5.15
2022-12-08T06:40:11.177Z,5.19
2022-12-08T06:42:31.269Z,5.18
2022-12-08T06:44:33.521Z,5.26
2022-12-08T06:46:35.420Z,5.29
2022-12-08T06:48:37.698Z,5.30
2022-12-08T06:50:39.507Z,5.37
2022-12-08T06:52:51.563Z,5.34
2022-12-08T06:55:00.578Z,5.20
2022-12-08T06:57:02.415Z,5.25
2022-12-08T06:59:04.804Z,5.37
2022-12-08T07:01:08.414Z,5.36
2022-12-08T07:03:11.136Z,5.33
2022-12-08T07:05:13.269Z,5.34
2022-12-08T07:07:15.050Z,5.33
2022-12-08T07:09:16.843Z,5.34
2022-12-08T07:11:21.951Z,5.44
2022-12-08T07:13:24.310Z,5.48
2022-12-08T07:15:27.378Z,5.56
2022-12-08T07:17:29.672Z,5.85
2022-12-08T07:19:31.552Z,5.84
2022-12-08T07:21:33.870Z,5.96
2022-12-08T07:23:36.448Z,6.09
2022-12-08T07:25:38.302Z,6.08
2022-12-08T07:27:42.032Z,6.00
2022-12-08T07:29:43.794Z,6.34
2022-12-08T07:31:45.928Z,6.39
2022-12-08T07:33:48.363Z,6.47
2022-12-08T07:36:01.776Z,6.44
2022-12-08T07:38:05.849Z,6.66
2022-12-08T07:40:09.458Z,7.00
2022-12-08T07:42:11.573Z,7.27
2022-12-08T07:44:13.489Z,7.57
2022-12-08T07:46:18.389Z,7.74
2022-12-08T07:48:20.884Z,7.97
2022-12-08T07:50:22.712Z,8.09
2022-12-08T07:52:24.573Z,8.06
2022-12-08T07:54:27.805Z,8.10
2022-12-08T07:56:29.673Z,7.93
2022-12-08T07:58:34.669Z,7.92
2022-12-08T08:00:37.910Z,8.05
2022-12-08T08:02:40.273Z,8.31
2022-12-08T08:04:42.338Z,8.25
2022-12-08T08:06:44.525Z,8.18
2022-12-08T08:08:46.591Z,8.41
2022-12-08T08:10:48.740Z,8.50
2022-12-08T08:12:51.048Z,8.56
2022-12-08T08:14:52.844Z,8.49
2022-12-08T08:16:54.925Z,8.68
2022-12-08T08:18:57.120Z,8.81
2022-12-08T08:21:06.668Z,8.63
2022-12-08T08:23:21.225Z,8.36
2022-12-08T08:25:23.206Z,8.73
2022-12-08T08:27:26.888Z,8.74
2022-12-08T08:29:28.714Z,8.55
2022-12-08T08:31:30.667Z,8.83
2022-12-08T08:33:33.216Z,8.54
2022-12-08T08:35:35.023Z,8.33
2022-12-08T08:37:36.792Z,8.24
2022-12-08T08:39:38.942Z,8.25
2022-12-08T08:41:41.504Z,8.50
2022-12-08T08:43:43.593Z,8.79
2022-12-08T08:45:45.406Z,9.16
2022-12-08T08:47:47.346Z,9.14
2022-12-08T08:49:49.521Z,8.69
2022-12-08T08:51:54.006Z,8.36
2022-12-08T08:53:56.669Z,8.31
2022-12-08T08:55:58.487Z,7.73
2022-12-08T08:58:00.273Z,7.62
2022-12-08T09:00:05.699Z,7.85
2022-12-08T09:02:15.563Z,7.69
2022-12-08T09:04:18.832Z,7.53
2022-12-08T09:06:21.682Z,7.88
2022-12-08T09:08:24.084Z,7.53
2022-12-08T09:10:27.298Z,7.54
2022-12-08T09:12:29.162Z,7.25
2022-12-08T09:14:31.527Z,7.14
2022-12-08T09:16:37.464Z,7.37
2022-12-08T09:18:43.059Z,7.38
2022-12-08T09:20:44.901Z,7.44
2022-12-08T09:22:46.732Z,7.52
2022-12-08T09:24:48.898Z,7.73
2022-12-08T09:26:50.689Z,7.39
2022-12-08T09:28:53.917Z,7.65
2022-12-08T09:30:56.110Z,7.73
2022-12-08T09:32:58.006Z,7.32
2022-12-08T09:35:00.092Z,7.71
2022-12-08T09:37:02.380Z,7.72
2022-12-08T09:39:04.385Z,7.68
2022-12-08T09:41:16.594Z,7.93
2022-12-08T09:43:44.343Z,8.09
2022-12-08T09:45:48.876Z,8.15
2022-12-08T09:48:10.363Z,8.08
2022-12-08T09:50:39.187Z,8.28
2022-12-08T09:52:52.969Z,8.25
2022-12-08T09:55:01.378Z,8.29
2022-12-08T09:57:08.305Z,8.57
2022-12-08T09:59:13.545Z,8.50
2022-12-08T10:01:16.614Z,8.47
2022-12-08T10:03:20.463Z,8.27
2022-12-08T10:05:25.925Z,8.39
2022-12-08T10:07:27.806Z,8.28
2022-12-08T10:09:41.529Z,8.16
2022-12-08T10:11:46.774Z,8.14
2022-12-08T10:14:31.188Z,8.17
2022-12-08T10:16:42.023Z,8.22
2022-12-08T10:18:43.927Z,8.21
2022-12-08T10:20:49.680Z,8.19
2022-12-08T10:23:12.114Z,8.25
2022-12-08T10:25:19.288Z,8.33
2022-12-08T10:27:22.223Z,7.51
2022-12-08T10:29:24.056Z,7.44
2022-12-08T10:31:26.337Z,7.58
2022-12-08T10:33:29.623Z,7.95
2022-12-08T10:35:47.758Z,8.03
2022-12-08T10:38:01.929Z,7.72
2022-12-08T10:40:43.847Z,8.08
2022-12-08T10:42:51.507Z,7.77
2022-12-08T10:45:15.307Z,7.69
2022-12-08T10:47:21.608Z,7.95
2022-12-08T10:49:29.405Z,7.84
2022-12-08T10:51:34.155Z,7.76
2022-12-08T10:53:46.211Z,7.78
2022-12-08T10:55:50.090Z,7.91
2022-12-08T10:57:52.282Z,8.06
2022-12-08T10:59:59.640Z,8.18
2022-12-08T11:02:03.431Z,8.13
2022-12-08T11:04:16.041Z,7.63
2022-12-08T11:06:21.578Z,7.42
2022-12-08T11:08:24.210Z,7.64
2022-12-08T11:10:33.347Z,7.86
2022-12-08T11:12:36.727Z,8.04
2022-12-08T11:14:45.548Z,8.00
2022-12-08T11:16:47.539Z,7.93
2022-12-08T11:18:57.284Z,8.13
2022-12-08T11:21:05.935Z,8.32
2022-12-08T11:23:24.377Z,8.15
2022-12-08T11:25:27.687Z,7.92
2022-12-08T11:27:32.623Z,8.09
2022-12-08T11:29:35.729Z,8.22
2022-12-08T11:31:54.972Z,8.10
2022-12-08T11:33:57.639Z,7.85
2022-12-08T11:36:06.473Z,7.72
2022-12-08T11:38:22.319Z,7.73
2022-12-08T11:40:36.240Z,8.09
2022-12-08T11:43:10.336Z,7.98
2022-12-08T11:45:19.782Z,7.97
2022-12-08T11:47:41.174Z,7.88
2022-12-08T11:52:02.988Z,7.70
2022-12-08T11:54:27.078Z,7.88
2022-12-08T11:56:37.173Z,7.75
2022-12-08T11:58:44.792Z,7.65
2022-12-08T12:00:47.067Z,7.72
2022-12-08T12:02:59.609Z,7.44
2022-12-08T12:05:23.585Z,7.50
2022-12-08T12:08:04.886Z,7.58
2022-12-08T12:10:25.378Z,7.66
2022-12-08T12:12:39.926Z,7.41
2022-12-08T12:15:09.742Z,7.51
2022-12-08T12:17:26.507Z,7.65
2022-12-08T12:19:35.391Z,7.56
2022-12-08T12:21:49.002Z,7.48
2022-12-08T12:23:59.093Z,7.57
2022-12-08T12:26:07.129Z,7.89
2022-12-08T12:28:12.839Z,7.43
2022-12-08T12:30:24.635Z,7.48
2022-12-08T12:32:39.841Z,7.48
2022-12-08T12:34:57.124Z,7.29
2022-12-08T12:37:10.335Z,7.42
2022-12-08T12:39:14.647Z,7.55
2022-12-08T12:41:27.251Z,7.55
2022-12-08T12:43:37.220Z,7.41
2022-12-08T12:45:47.493Z,7.65
2022-12-08T12:48:17.607Z,7.40
2022-12-08T12:50:34.717Z,7.50
2022-12-08T12:52:37.964Z,7.58
2022-12-08T12:54:43.509Z,7.46
2022-12-08T12:57:00.352Z,7.64
2022-12-08T12:59:42.093Z,7.58
2022-12-08T13:01:52.708Z,7.38
2022-12-08T13:04:09.771Z,7.05
2022-12-08T13:06:14.991Z,7.24
2022-12-08T13:08:24.476Z,7.03
2022-12-08T13:10:37.304Z,7.37
2022-12-08T13:12:39.221Z,7.26
2022-12-08T13:14:50.877Z,7.31
2022-12-08T13:16:56.342Z,7.28
2022-12-08T13:19:02.475Z,7.47
2022-12-08T13:21:10.582Z,7.65
2022-12-08T13:23:27.633Z,7.42
2022-12-08T13:25:40.138Z,7.38
2022-12-08T13:27:54.304Z,7.52
2022-12-08T13:30:34.204Z,7.60
2022-12-08T13:33:17.343Z,7.34
2022-12-08T13:35:18.873Z,7.54
2022-12-08T13:37:53.903Z,7.13
2022-12-08T13:40:02.787Z,7.39
2022-12-08T13:42:23.074Z,7.55
2022-12-08T13:56:24.885Z,7.36
2022-12-08T13:57:36.669Z,7.46
2022-12-08T13:59:44.239Z,7.31
2022-12-08T14:01:48.899Z,7.16
2022-12-08T14:04:31.049Z,7.05
2022-12-08T14:06:44.128Z,7.13
2022-12-08T14:09:00.310Z,7.17
2022-12-08T14:11:07.118Z,6.72
2022-12-08T14:13:12.501Z,6.93
2022-12-08T14:15:16.278Z,6.97
2022-12-08T14:17:22.523Z,6.90
2022-12-08T14:19:27.608Z,6.93
2022-12-08T14:21:34.445Z,7.10
2022-12-08T14:23:38.434Z,7.03
2022-12-08T14:25:47.381Z,7.07
2022-12-08T14:27:50.533Z,6.97
2022-12-08T14:29:56.418Z,6.95
2022-12-08T14:31:58.458Z,6.88
2022-12-08T14:34:00.670Z,6.93
2022-12-08T14:36:02.574Z,6.73
2022-12-08T14:38:06.232Z,7.09
2022-12-08T14:40:33.676Z,7.23
2022-12-08T14:42:48.266Z,7.22
2022-12-08T14:45:01.568Z,7.08
2022-12-08T14:47:09.321Z,7.07
2022-12-08T14:49:32.195Z,7.11
2022-12-08T14:51:34.053Z,7.36
2022-12-08T14:53:42.515Z,7.38
2022-12-08T14:55:48.806Z,7.31
2022-12-08T14:57:50.992Z,7.29
2022-12-08T14:59:53.701Z,7.27
2022-12-08T15:02:16.289Z,6.91
2022-12-08T15:04:24.270Z,7.23
2022-12-08T15:06:26.482Z,7.11
2022-12-08T15:08:28.569Z,7.15
2022-12-08T15:10:33.378Z,7.13
2022-12-08T15:12:35.636Z,6.89
2022-12-08T15:14:41.534Z,7.10
2022-12-08T15:16:44.236Z,6.83
2022-12-08T15:19:02.321Z,6.95
2022-12-08T15:21:09.205Z,6.92
2022-12-08T15:23:21.417Z,7.00
2022-12-08T15:25:25.102Z,7.06
2022-12-08T15:27:27.615Z,7.08
2022-12-08T15:29:31.425Z,7.06
2022-12-08T15:31:33.235Z,6.91
2022-12-08T15:33:35.444Z,7.15
2022-12-08T15:35:41.031Z,7.14
2022-12-08T15:37:43.214Z,7.22
2022-12-08T15:39:45.364Z,7.24
2022-12-08T15:41:48.205Z,7.33
2022-12-08T15:43:50.029Z,7.30
2022-12-08T15:45:59.495Z,7.17
2022-12-08T15:48:02.088Z,7.28
2022-12-08T15:50:07.301Z,7.34
2022-12-08T15:52:14.630Z,7.39
2022-12-08T15:54:18.059Z,7.37
2022-12-08T15:56:28.614Z,7.13
2022-12-08T15:58:52.893Z,7.23
2022-12-08T16:00:55.608Z,7.23
2022-12-08T16:03:28.176Z,7.35
2022-12-08T16:05:44.311Z,7.19
2022-12-08T16:07:45.956Z,7.11
2022-12-08T16:09:48.116Z,7.33
2022-12-08T16:12:10.212Z,7.18
2022-12-08T16:14:54.777Z,7.27
2022-12-08T16:16:34.923Z,7.35
2022-12-08T16:18:40.124Z,7.12
2022-12-08T16:23:19.704Z,7.03
2022-12-08T16:25:33.380Z,7.12
2022-12-08T16:30:08.910Z,7.18
2022-12-08T16:32:10.865Z,7.06
2022-12-08T16:34:12.990Z,7.29
2022-12-08T16:36:15.104Z,7.09
2022-12-08T16:38:17.110Z,7.17
2022-12-08T16:40:19.302Z,6.96
2022-12-08T16:42:39.702Z,7.23
2022-12-08T16:44:45.251Z,7.12
2022-12-08T16:46:47.092Z,7.20
2022-12-08T16:48:49.792Z,7.18
2022-12-08T16:50:51.623Z,7.16
2022-12-08T16:53:02.112Z,7.19
2022-12-08T16:55:16.279Z,7.02
2022-12-08T16:57:18.086Z,6.78
2022-12-08T16:59:20.241Z,6.93
2022-12-08T17:01:23.630Z,7.05
2022-12-08T17:03:25.499Z,6.90
2022-12-08T17:05:27.860Z,6.95
2022-12-08T17:07:29.662Z,7.22
2022-12-08T17:09:32.098Z,7.06
2022-12-08T17:11:40.846Z,6.95
2022-12-08T17:13:44.641Z,7.09
2022-12-08T17:15:46.480Z,7.11
2022-12-08T17:17:48.999Z,7.17
2022-12-08T17:19:50.793Z,6.84
2022-12-08T17:21:52.658Z,6.94
2022-12-08T17:23:55.109Z,6.97
2022-12-08T17:25:59.126Z,6.84
2022-12-08T17:28:00.919Z,6.90
2022-12-08T17:30:05.197Z,6.71
2022-12-08T17:34:34.749Z,6.69
2022-12-08T17:36:37.430Z,6.72
2022-12-08T17:38:39.579Z,6.85
2022-12-08T17:40:41.522Z,6.67
2022-12-08T17:42:43.876Z,6.75
2022-12-08T17:44:46.760Z,6.81
2022-12-08T17:46:52.913Z,6.64
2022-12-08T17:48:55.656Z,6.78
2022-12-08T17:50:57.541Z,6.70
2022-12-08T17:52:59.302Z,6.78
2022-12-08T17:55:01.563Z,6.64
2022-12-08T17:57:03.578Z,6.74
2022-12-08T17:59:05.449Z,6.51
2022-12-08T18:01:09.816Z,6.85
2022-12-08T18:03:20.274Z,6.67
2022-12-08T18:05:24.857Z,6.63
2022-12-08T18:07:27.787Z,6.95
2022-12-08T18:09:30.627Z,6.96
2022-12-08T18:11:36.219Z,6.92
2022-12-08T18:13:41.973Z,7.15
2022-12-08T18:15:44.198Z,6.84
